createdAt,value
2019-01-09T00:01:31.628Z,1.73
2019-01-09T00:04:01.746Z,2.60
2019-01-09T00:06:32.361Z,2.70
2019-01-09T00:09:04.612Z,2.40
2019-01-09T00:11:34.910Z,2.50
2019-01-09T00:14:05.699Z,2.23
2019-01-09T00:16:35.962Z,2.30
2019-01-09T00:19:08.984Z,3.00
2019-01-09T00:21:39.174Z,2.33
2019-01-09T00:24:09.388Z,2.90
2019-01-09T00:26:39.591Z,2.70
2019-01-09T00:29:09.788Z,2.53
2019-01-09T00:31:39.983Z,2.80
2019-01-09T00:34:10.546Z,2.67
2019-01-09T00:36:40.956Z,2.60
2019-01-09T00:39:11.157Z,2.50
2019-01-09T00:41:41.742Z,2.60
2019-01-09T00:44:12.241Z,2.60
2019-01-09T00:46:42.459Z,2.80
2019-01-09T00:49:14.430Z,2.60
2019-01-09T00:51:44.675Z,1.90
2019-01-09T00:54:14.827Z,2.33
2019-01-09T00:56:45.589Z,2.20
2019-01-09T00:59:15.892Z,1.90
2019-01-09T01:01:55.689Z,2.20
2019-01-09T01:04:51.711Z,2.40
2019-01-09T01:08:01.323Z,2.57
2019-01-09T01:11:15.493Z,2.47
2019-01-09T01:14:10.585Z,1.83
2019-01-09T01:17:24.339Z,2.10
2019-01-09T01:20:23.315Z,1.80
2019-01-09T01:23:53.139Z,2.10
2019-01-09T01:26:38.817Z,2.40
2019-01-09T01:30:07.390Z,2.80
2019-01-09T01:33:09.454Z,2.83
2019-01-09T01:36:26.956Z,2.63
2019-01-09T01:39:27.497Z,3.30
2019-01-09T01:42:25.778Z,3.57
2019-01-09T01:45:28.806Z,3.03
2019-01-09T01:48:13.487Z,3.10
2019-01-09T01:51:19.757Z,2.83
2019-01-09T01:54:12.357Z,2.10
2019-01-09T01:56:55.245Z,1.67
2019-01-09T01:59:47.196Z,1.77
2019-01-09T02:02:35.457Z,1.83
2019-01-09T02:05:34.845Z,1.90
2019-01-09T02:08:42.782Z,2.17
2019-01-09T02:11:23.278Z,2.40
2019-01-09T02:14:19.203Z,2.40
2019-01-09T02:17:18.112Z,2.80
2019-01-09T02:20:36.253Z,2.80
2019-01-09T02:23:42.332Z,2.43
2019-01-09T02:26:37.330Z,1.63
2019-01-09T02:29:32.702Z,1.50
2019-01-09T02:32:31.158Z,1.60
2019-01-09T02:35:01.479Z,1.83
2019-01-09T02:37:32.038Z,2.13
2019-01-09T02:40:02.214Z,2.20
2019-01-09T02:42:32.495Z,2.93
2019-01-09T02:45:02.981Z,2.50
2019-01-09T02:47:33.183Z,2.30
2019-01-09T02:50:03.521Z,1.90
2019-01-09T02:52:34.636Z,1.93
2019-01-09T02:55:05.053Z,1.77
2019-01-09T02:57:35.641Z,1.27
2019-01-09T03:00:10.744Z,1.63
2019-01-09T03:02:41.151Z,1.30
2019-01-09T03:05:11.786Z,1.67
2019-01-09T03:07:41.963Z,1.87
2019-01-09T03:10:12.225Z,2.07
2019-01-09T03:12:42.417Z,1.70
2019-01-09T03:15:13.096Z,2.40
2019-01-09T03:17:43.395Z,2.70
2019-01-09T03:20:14.523Z,1.90
2019-01-09T03:22:45.101Z,1.97
2019-01-09T03:25:15.287Z,2.00
2019-01-09T03:27:45.778Z,2.37
2019-01-09T03:30:16.260Z,2.00
2019-01-09T03:32:46.452Z,1.90
2019-01-09T03:35:17.064Z,2.03
2019-01-09T03:37:47.219Z,1.80
2019-01-09T03:40:17.395Z,1.90
2019-01-09T03:42:47.535Z,2.60
2019-01-09T03:45:17.845Z,2.47
2019-01-09T03:47:48.142Z,1.57
2019-01-09T03:50:18.241Z,1.10
2019-01-09T03:52:48.468Z,1.37
2019-01-09T03:55:18.591Z,1.20
2019-01-09T03:57:49.170Z,1.50
2019-01-09T04:00:19.380Z,1.43
2019-01-09T04:02:49.826Z,1.70
2019-01-09T04:05:20.019Z,2.33
2019-01-09T04:07:50.378Z,2.67
2019-01-09T04:10:20.651Z,2.10
2019-01-09T04:12:50.876Z,2.20
2019-01-09T04:15:21.212Z,1.80
2019-01-09T04:17:51.436Z,1.70
2019-01-09T04:20:21.893Z,1.60
2019-01-09T04:22:52.106Z,1.47
2019-01-09T04:25:22.206Z,1.70
2019-01-09T04:27:52.412Z,2.07
2019-01-09T04:30:22.980Z,1.97
2019-01-09T04:32:53.334Z,2.17
2019-01-09T04:35:23.805Z,2.13
2019-01-09T04:37:54.038Z,1.70
2019-01-09T04:40:24.507Z,1.70
2019-01-09T04:42:55.420Z,1.30
2019-01-09T04:45:25.666Z,1.60
2019-01-09T04:47:55.828Z,1.50
2019-01-09T04:50:26.039Z,1.47
2019-01-09T04:52:56.229Z,1.63
2019-01-09T04:55:26.835Z,1.90
2019-01-09T04:57:56.961Z,2.10
2019-01-09T05:00:27.216Z,2.40
2019-01-09T05:02:57.733Z,2.30
2019-01-09T05:05:28.269Z,2.43
2019-01-09T05:07:58.479Z,2.10
2019-01-09T05:10:28.802Z,1.90
2019-01-09T05:12:59.072Z,1.70
2019-01-09T05:15:29.335Z,1.87
2019-01-09T05:17:59.552Z,1.67
2019-01-09T05:20:30.180Z,1.80
2019-01-09T05:23:00.430Z,1.40
2019-01-09T05:25:30.650Z,1.97
2019-01-09T05:28:00.865Z,1.20
2019-01-09T05:30:31.367Z,2.00
2019-01-09T05:33:02.381Z,1.63
2019-01-09T05:35:32.611Z,2.00
2019-01-09T05:38:02.841Z,2.07
2019-01-09T05:40:33.035Z,2.50
2019-01-09T05:43:03.285Z,2.30
2019-01-09T05:45:33.500Z,2.50
2019-01-09T05:48:04.033Z,2.97
2019-01-09T05:50:34.575Z,2.20
2019-01-09T05:53:04.803Z,1.80
2019-01-09T05:55:34.971Z,2.13
2019-01-09T05:58:05.504Z,2.20
2019-01-09T06:00:35.729Z,2.80
2019-01-09T06:03:05.950Z,2.07
2019-01-09T06:05:36.136Z,2.70
2019-01-09T06:08:06.432Z,2.40
2019-01-09T06:10:36.698Z,2.90
2019-01-09T06:13:06.919Z,2.70
2019-01-09T06:15:37.138Z,3.00
2019-01-09T06:18:07.344Z,2.50
2019-01-09T06:20:38.061Z,2.83
2019-01-09T06:23:08.292Z,2.60
2019-01-09T06:25:38.412Z,2.90
2019-01-09T06:28:08.664Z,2.20
2019-01-09T06:30:39.298Z,2.90
2019-01-09T06:33:10.255Z,2.53
2019-01-09T06:35:40.538Z,2.60
2019-01-09T06:38:11.058Z,2.47
2019-01-09T06:40:41.958Z,2.70
2019-01-09T06:43:13.509Z,3.00
2019-01-09T06:45:43.886Z,2.47
2019-01-09T06:48:14.881Z,2.87
2019-01-09T06:50:45.239Z,2.73
2019-01-09T06:53:15.460Z,2.30
2019-01-09T06:55:45.751Z,2.30
2019-01-09T06:58:15.921Z,3.20
2019-01-09T07:00:46.172Z,2.80
2019-01-09T07:03:16.515Z,2.90
2019-01-09T07:05:46.664Z,2.87
2019-01-09T07:08:16.948Z,2.90
2019-01-09T07:10:47.251Z,2.70
2019-01-09T07:13:17.522Z,2.63
2019-01-09T07:15:48.203Z,2.70
2019-01-09T07:18:18.835Z,2.10
2019-01-09T07:20:49.333Z,2.67
2019-01-09T07:23:19.569Z,2.33
2019-01-09T07:25:49.810Z,1.87
2019-01-09T07:28:20.912Z,1.80
2019-01-09T07:30:51.204Z,2.23
2019-01-09T07:33:21.499Z,2.10
2019-01-09T07:35:52.142Z,1.97
2019-01-09T07:38:23.559Z,2.63
2019-01-09T07:40:54.169Z,2.63
2019-01-09T07:43:24.655Z,2.10
2019-01-09T07:45:55.430Z,2.30
2019-01-09T07:48:25.808Z,2.03
2019-01-09T07:50:56.227Z,2.30
2019-01-09T07:53:26.669Z,2.33
2019-01-09T07:55:57.075Z,2.10
2019-01-09T07:58:27.432Z,2.10
2019-01-09T08:00:57.967Z,2.70
2019-01-09T08:03:29.263Z,3.10
2019-01-09T08:06:02.329Z,2.53
2019-01-09T08:08:32.693Z,2.93
2019-01-09T08:11:03.610Z,2.80
2019-01-09T08:13:36.806Z,2.90
2019-01-09T08:16:10.014Z,2.43
2019-01-09T08:18:40.320Z,2.80
2019-01-09T08:21:13.668Z,2.90
2019-01-09T08:23:44.044Z,2.83
2019-01-09T08:26:15.534Z,2.65
2019-01-09T08:28:47.964Z,2.73
2019-01-09T08:31:18.916Z,3.63
2019-01-09T08:33:49.395Z,3.90
2019-01-09T08:36:20.437Z,3.50
2019-01-09T08:38:56.087Z,2.97
2019-01-09T08:41:23.361Z,2.43
2019-01-09T08:43:53.730Z,2.50
2019-01-09T08:46:24.485Z,2.33
2019-01-09T08:48:54.820Z,1.90
2019-01-09T08:51:26.001Z,1.93
2019-01-09T08:53:58.494Z,2.00
2019-01-09T08:56:28.921Z,1.90
2019-01-09T08:58:59.614Z,2.27
2019-01-09T09:01:30.069Z,1.80
2019-01-09T09:04:00.509Z,1.80
2019-01-09T09:06:31.514Z,2.00
2019-01-09T09:09:05.252Z,2.47
2019-01-09T09:11:36.687Z,2.13
2019-01-09T09:14:08.907Z,2.90
2019-01-09T09:16:39.254Z,2.50
2019-01-09T09:19:09.608Z,2.53
2019-01-09T09:21:39.800Z,2.47
2019-01-09T09:24:13.432Z,1.83
2019-01-09T09:26:43.763Z,1.90
2019-01-09T09:29:14.203Z,1.93
2019-01-09T09:31:44.595Z,2.27
2019-01-09T09:34:15.231Z,2.50
2019-01-09T09:36:45.767Z,2.50
2019-01-09T09:39:16.473Z,2.93
2019-01-09T09:41:47.218Z,2.90
2019-01-09T09:44:17.945Z,3.17
2019-01-09T09:46:48.649Z,2.80
2019-01-09T09:49:19.037Z,3.00
2019-01-09T09:51:49.502Z,2.57
2019-01-09T09:54:20.035Z,2.80
2019-01-09T09:56:50.429Z,3.13
2019-01-09T09:59:21.071Z,2.87
2019-01-09T10:01:53.386Z,3.23
2019-01-09T10:04:23.791Z,2.77
2019-01-09T10:06:54.414Z,3.10
2019-01-09T10:09:24.697Z,3.33
2019-01-09T10:11:55.021Z,3.13
2019-01-09T10:14:25.769Z,2.93
2019-01-09T10:17:06.140Z,3.20
2019-01-09T10:19:42.739Z,2.73
2019-01-09T10:22:13.993Z,2.80
2019-01-09T10:24:44.594Z,2.57
2019-01-09T10:27:17.696Z,3.37
2019-01-09T10:29:48.222Z,2.57
2019-01-09T10:32:18.727Z,2.90
2019-01-09T10:34:49.483Z,3.00
2019-01-09T10:37:20.138Z,3.57
2019-01-09T10:39:51.306Z,3.13
2019-01-09T10:42:22.308Z,3.47
2019-01-09T10:44:53.221Z,4.20
2019-01-09T10:47:23.588Z,3.13
2019-01-09T10:49:54.011Z,3.07
2019-01-09T10:52:24.440Z,3.00
2019-01-09T10:54:55.956Z,3.10
2019-01-09T10:57:57.550Z,2.57
2019-01-09T11:00:27.962Z,1.70
2019-01-09T11:02:58.532Z,2.00
2019-01-09T11:05:28.927Z,2.13
2019-01-09T11:08:01.182Z,2.00
2019-01-09T11:10:31.274Z,1.90
2019-01-09T11:13:01.974Z,1.73
2019-01-09T11:15:32.404Z,2.00
2019-01-09T11:18:02.797Z,2.10
2019-01-09T11:20:33.157Z,1.77
2019-01-09T11:23:03.819Z,1.73
2019-01-09T11:25:40.686Z,2.00
2019-01-09T11:28:13.096Z,1.83
2019-01-09T11:30:43.851Z,1.87
2019-01-09T11:33:14.489Z,2.20
2019-01-09T11:35:46.060Z,2.10
2019-01-09T11:38:17.105Z,2.50
2019-01-09T11:40:47.502Z,2.47
2019-01-09T11:43:18.243Z,2.13
2019-01-09T11:45:48.894Z,2.70
2019-01-09T11:48:19.309Z,2.40
2019-01-09T11:50:49.679Z,2.90
2019-01-09T11:53:20.071Z,3.10
2019-01-09T11:55:50.732Z,3.23
2019-01-09T11:58:21.785Z,2.50
2019-01-09T12:00:52.767Z,2.77
2019-01-09T12:03:23.944Z,2.40
2019-01-09T12:05:54.339Z,2.60
2019-01-09T12:08:25.821Z,2.73
2019-01-09T12:10:56.537Z,3.23
2019-01-09T12:13:27.063Z,2.83
2019-01-09T12:15:57.514Z,2.80
2019-01-09T12:18:30.867Z,2.63
2019-01-09T12:21:04.027Z,2.10
2019-01-09T12:23:34.400Z,2.60
2019-01-09T12:26:04.909Z,2.40
2019-01-09T12:28:37.376Z,2.43
2019-01-09T12:31:08.332Z,2.20
2019-01-09T12:33:40.914Z,2.70
2019-01-09T12:36:11.332Z,2.63
2019-01-09T12:38:41.791Z,2.70
2019-01-09T12:41:12.755Z,2.47
2019-01-09T12:43:43.373Z,2.50
2019-01-09T12:46:14.160Z,2.10
2019-01-09T12:48:45.698Z,2.03
2019-01-09T12:51:16.325Z,2.30
2019-01-09T12:53:46.813Z,2.17
2019-01-09T12:56:17.214Z,2.70
2019-01-09T12:58:47.640Z,2.77
2019-01-09T13:01:18.318Z,3.17
2019-01-09T13:03:48.689Z,2.70
2019-01-09T13:06:19.566Z,2.73
2019-01-09T13:08:49.951Z,2.40
2019-01-09T13:11:20.493Z,3.00
2019-01-09T13:13:51.269Z,2.80
2019-01-09T13:16:22.244Z,2.63
2019-01-09T13:18:52.641Z,2.60
2019-01-09T13:21:23.294Z,2.57
2019-01-09T13:23:57.314Z,2.63
2019-01-09T13:26:28.468Z,2.90
2019-01-09T13:28:59.323Z,2.53
2019-01-09T13:31:31.269Z,2.50
2019-01-09T13:34:01.986Z,3.50
2019-01-09T13:36:32.371Z,2.80
2019-01-09T13:39:02.718Z,2.90
2019-01-09T13:41:33.117Z,3.23
2019-01-09T13:44:03.509Z,2.87
2019-01-09T13:46:35.634Z,2.90
2019-01-09T13:49:08.597Z,2.83
2019-01-09T13:51:39.040Z,2.67
2019-01-09T13:57:27.620Z,2.57
2019-01-09T13:59:58.143Z,2.27
2019-01-09T14:02:28.579Z,3.00
2019-01-09T14:04:59.205Z,2.43
2019-01-09T14:07:29.551Z,3.00
2019-01-09T14:10:01.725Z,2.73
2019-01-09T14:12:32.113Z,2.90
2019-01-09T14:15:02.525Z,3.27
2019-01-09T14:17:33.162Z,3.43
2019-01-09T14:20:03.787Z,2.90
2019-01-09T14:22:34.199Z,2.90
2019-01-09T14:25:04.864Z,2.87
2019-01-09T14:27:36.727Z,3.37
2019-01-09T14:30:09.737Z,3.50
2019-01-09T14:32:40.161Z,3.57
2019-01-09T14:35:10.723Z,2.63
2019-01-09T14:37:41.324Z,2.97
2019-01-09T14:40:13.030Z,2.73
2019-01-09T14:42:43.746Z,2.47
2019-01-09T14:45:14.604Z,2.30
2019-01-09T14:47:45.090Z,2.60
2019-01-09T14:50:20.958Z,2.50
2019-01-09T14:52:51.300Z,2.37
2019-01-09T14:55:24.540Z,2.53
2019-01-09T14:57:54.877Z,2.67
2019-01-09T15:00:27.171Z,2.40
2019-01-09T15:02:57.468Z,2.30
2019-01-09T15:05:27.921Z,2.53
2019-01-09T15:07:58.539Z,2.00
2019-01-09T15:10:31.600Z,2.40
2019-01-09T15:13:02.504Z,2.23
2019-01-09T15:15:33.168Z,2.20
2019-01-09T15:18:03.524Z,2.10
2019-01-09T15:20:39.237Z,2.33
2019-01-09T15:23:10.082Z,2.57
2019-01-09T15:25:40.583Z,2.20
2019-01-09T15:28:11.058Z,2.37
2019-01-09T15:30:41.523Z,2.67
2019-01-09T15:33:11.994Z,2.13
2019-01-09T15:35:42.780Z,2.33
2019-01-09T15:38:13.602Z,2.30
2019-01-09T15:40:45.038Z,2.70
2019-01-09T15:43:15.846Z,2.10
2019-01-09T15:45:46.205Z,2.40
2019-01-09T15:48:16.539Z,2.80
2019-01-09T15:50:47.285Z,2.70
2019-01-09T15:53:17.654Z,2.60
2019-01-09T15:55:48.149Z,2.20
2019-01-09T15:58:18.527Z,2.30
2019-01-09T16:00:51.889Z,2.33
2019-01-09T16:03:22.585Z,2.67
2019-01-09T16:05:53.132Z,2.93
2019-01-09T16:08:23.577Z,2.20
2019-01-09T16:10:54.217Z,2.10
2019-01-09T16:13:24.700Z,2.00
2019-01-09T16:15:57.385Z,1.67
2019-01-09T16:18:28.218Z,1.80
2019-01-09T16:20:58.879Z,2.50
2019-01-09T16:23:29.127Z,2.43
2019-01-09T16:25:59.364Z,2.00
2019-01-09T16:28:29.610Z,2.00
2019-01-09T16:31:13.313Z,2.30
2019-01-09T16:33:43.911Z,2.30
2019-01-09T16:36:14.558Z,2.00
2019-01-09T16:38:44.794Z,2.10
2019-01-09T16:41:14.977Z,2.27
2019-01-09T16:43:45.201Z,2.60
2019-01-09T16:46:15.940Z,2.03
2019-01-09T16:48:46.514Z,2.27
2019-01-09T16:51:16.708Z,2.10
2019-01-09T16:53:46.954Z,2.53
2019-01-09T16:56:17.553Z,3.20
2019-01-09T16:58:48.232Z,2.40
2019-01-09T17:01:18.912Z,2.40
2019-01-09T17:03:49.165Z,2.33
2019-01-09T17:06:19.426Z,1.80
2019-01-09T17:08:49.640Z,2.07
2019-01-09T17:11:19.870Z,1.83
2019-01-09T17:13:50.116Z,2.30
2019-01-09T17:16:20.398Z,1.87
2019-01-09T17:18:50.620Z,2.23
2019-01-09T17:21:20.843Z,2.03
2019-01-09T17:23:51.456Z,1.80
2019-01-09T17:26:21.684Z,2.30
2019-01-09T17:28:52.192Z,1.80
2019-01-09T17:31:22.478Z,2.03
2019-01-09T17:33:53.143Z,1.80
2019-01-09T17:36:23.698Z,2.20
2019-01-09T17:38:53.985Z,2.20
2019-01-09T17:41:24.288Z,2.00
2019-01-09T17:43:54.939Z,2.10
2019-01-09T17:46:25.289Z,2.33
2019-01-09T17:48:55.477Z,1.90
2019-01-09T17:51:25.703Z,2.17
2019-01-09T17:53:55.905Z,1.90
2019-01-09T17:56:26.167Z,1.73
2019-01-09T17:58:56.791Z,1.87
2019-01-09T18:01:27.046Z,2.70
2019-01-09T18:03:57.569Z,2.20
2019-01-09T18:06:27.808Z,1.97
2019-01-09T18:08:58.080Z,2.00
2019-01-09T18:11:28.285Z,2.57
2019-01-09T18:13:58.934Z,2.03
2019-01-09T18:16:29.131Z,2.30
2019-01-09T18:18:59.747Z,1.93
2019-01-09T18:21:30.352Z,1.90
2019-01-09T18:24:00.604Z,1.73
2019-01-09T18:26:30.913Z,1.87
2019-01-09T18:29:01.131Z,2.00
2019-01-09T18:32:12.545Z,2.00
2019-01-09T18:35:04.086Z,1.67
2019-01-09T18:38:01.232Z,2.17
2019-01-09T18:41:08.543Z,1.90
2019-01-09T18:44:35.485Z,1.90
2019-01-09T18:47:54.774Z,1.97
2019-01-09T18:51:12.189Z,2.03
2019-01-09T18:53:46.097Z,1.90
2019-01-09T18:56:16.538Z,1.93
2019-01-09T18:58:46.755Z,1.80
2019-01-09T19:01:17.395Z,2.10
2019-01-09T19:03:47.646Z,2.10
2019-01-09T19:06:18.299Z,1.90
2019-01-09T19:08:48.523Z,1.87
2019-01-09T19:11:19.624Z,1.73
2019-01-09T19:13:50.541Z,2.17
2019-01-09T19:16:21.199Z,1.97
2019-01-09T19:18:51.580Z,2.00
2019-01-09T19:21:21.847Z,1.90
2019-01-09T19:23:52.268Z,2.00
2019-01-09T19:26:22.863Z,1.93
2019-01-09T19:28:53.177Z,1.90
2019-01-09T19:31:23.391Z,2.43
2019-01-09T19:33:54.789Z,1.80
2019-01-09T19:36:28.411Z,1.90
2019-01-09T19:38:58.944Z,1.87
2019-01-09T19:41:29.570Z,2.30
2019-01-09T19:43:59.802Z,1.67
2019-01-09T19:46:30.431Z,2.00
2019-01-09T19:49:01.143Z,1.90
2019-01-09T19:51:31.626Z,2.10
2019-01-09T19:54:01.881Z,2.07
2019-01-09T19:56:32.202Z,1.80
2019-01-09T19:59:02.812Z,1.80
2019-01-09T20:01:33.736Z,1.80
2019-01-09T20:04:04.766Z,1.80
2019-01-09T20:06:35.106Z,1.73
2019-01-09T20:09:08.915Z,1.70
2019-01-09T20:11:39.140Z,1.87
2019-01-09T20:14:09.516Z,2.00
2019-01-09T20:16:39.833Z,1.70
2019-01-09T20:19:10.570Z,1.80
2019-01-09T20:21:40.846Z,2.30
2019-01-09T20:24:11.528Z,2.03
2019-01-09T20:26:41.739Z,1.90
2019-01-09T20:29:12.001Z,2.13
2019-01-09T20:31:42.708Z,1.73
2019-01-09T20:34:13.266Z,2.10
2019-01-09T20:36:43.632Z,2.50
2019-01-09T20:39:13.953Z,2.13
2019-01-09T20:41:44.665Z,1.87
2019-01-09T20:44:16.439Z,1.70
2019-01-09T20:46:46.806Z,1.93
2019-01-09T20:49:17.005Z,2.20
2019-01-09T20:51:47.631Z,1.80
2019-01-09T20:54:17.836Z,2.00
2019-01-09T20:56:48.024Z,1.80
2019-01-09T20:59:18.561Z,1.83
2019-01-09T21:01:48.820Z,1.53
2019-01-09T21:04:20.047Z,1.67
2019-01-09T21:06:50.633Z,1.87
2019-01-09T21:09:20.838Z,2.03
2019-01-09T21:11:51.112Z,1.77
2019-01-09T21:14:21.499Z,2.30
2019-01-09T21:16:51.975Z,2.27
2019-01-09T21:19:22.248Z,1.90
2019-01-09T21:21:52.723Z,2.20
2019-01-09T21:24:24.010Z,2.47
2019-01-09T21:26:55.114Z,2.40
2019-01-09T21:29:25.462Z,2.17
2019-01-09T21:31:56.032Z,1.73
2019-01-09T21:34:26.632Z,1.90
2019-01-09T21:36:56.909Z,2.20
2019-01-09T21:39:27.056Z,1.77
2019-01-09T21:41:57.264Z,1.83
2019-01-09T21:44:27.803Z,2.07
2019-01-09T21:46:58.036Z,2.13
2019-01-09T21:49:28.552Z,2.20
2019-01-09T21:51:58.728Z,1.90
2019-01-09T21:54:28.994Z,1.67
2019-01-09T21:56:59.614Z,2.00
2019-01-09T21:59:29.844Z,1.80
2019-01-09T22:02:00.076Z,2.03
2019-01-09T22:04:30.598Z,1.80
2019-01-09T22:07:00.866Z,1.70
2019-01-09T22:09:31.134Z,2.50
2019-01-09T22:12:02.482Z,1.73
2019-01-09T22:14:33.679Z,2.20
2019-01-09T22:17:04.030Z,2.03
2019-01-09T22:19:34.242Z,1.87
2019-01-09T22:22:07.014Z,2.03
2019-01-09T22:24:37.242Z,2.57
2019-01-09T22:27:07.798Z,2.03
2019-01-09T22:29:38.052Z,1.40
2019-01-09T22:32:08.425Z,1.77
2019-01-09T22:34:38.963Z,1.97
2019-01-09T22:37:09.197Z,1.50
2019-01-09T22:39:39.329Z,1.50
2019-01-09T22:42:11.997Z,1.57
2019-01-09T22:44:41.585Z,1.57
2019-01-09T22:47:11.775Z,1.97
2019-01-09T22:49:41.993Z,1.70
2019-01-09T22:52:12.241Z,2.00
2019-01-09T22:54:42.467Z,2.20
2019-01-09T22:57:12.708Z,2.00
2019-01-09T22:59:42.921Z,1.80
2019-01-09T23:02:14.331Z,2.27
2019-01-09T23:04:44.587Z,1.93
2019-01-09T23:07:14.785Z,2.00
2019-01-09T23:09:45.028Z,2.00
2019-01-09T23:12:21.003Z,2.10
2019-01-09T23:14:47.869Z,1.70
2019-01-09T23:17:18.343Z,2.40
2019-01-09T23:19:48.578Z,2.00
2019-01-09T23:22:18.690Z,1.90
2019-01-09T23:24:48.916Z,1.87
2019-01-09T23:27:19.173Z,1.83
2019-01-09T23:29:49.376Z,1.83
2019-01-09T23:32:19.538Z,2.00
2019-01-09T23:34:50.421Z,2.03
2019-01-09T23:37:20.694Z,1.80
2019-01-09T23:39:50.934Z,1.83
2019-01-09T23:42:30.037Z,1.67
2019-01-09T23:44:53.471Z,1.40
2019-01-09T23:47:23.709Z,1.60
2019-01-09T23:49:53.925Z,2.07
2019-01-09T23:52:24.156Z,1.90
2019-01-09T23:54:54.656Z,2.13
2019-01-09T23:57:24.908Z,1.97
2019-01-09T23:59:55.160Z,1.80
